createdAt,value
2017-09-24T00:00:10.797Z,15.90
2017-09-24T00:02:40.516Z,16.00
2017-09-24T00:05:10.006Z,16.00
2017-09-24T00:07:39.202Z,16.00
2017-09-24T00:10:08.067Z,16.00
2017-09-24T00:12:36.883Z,16.00
2017-09-24T00:15:05.642Z,16.10
2017-09-24T00:17:34.500Z,16.20
2017-09-24T00:20:03.909Z,16.30
2017-09-24T00:22:32.809Z,16.30
2017-09-24T00:25:02.362Z,16.30
2017-09-24T00:27:31.842Z,16.30
2017-09-24T00:30:01.140Z,16.30
2017-09-24T00:32:29.859Z,16.30
2017-09-24T00:34:58.202Z,16.20
2017-09-24T00:37:27.065Z,16.20
2017-09-24T00:39:56.503Z,16.30
2017-09-24T00:42:25.665Z,16.30
2017-09-24T00:44:54.098Z,16.30
2017-09-24T00:47:23.227Z,16.20
2017-09-24T00:49:52.410Z,16.30
2017-09-24T00:52:21.496Z,16.30
2017-09-24T00:54:50.746Z,16.30
2017-09-24T00:57:20.296Z,16.50
2017-09-24T00:59:49.101Z,16.50
2017-09-24T01:02:18.226Z,16.60
2017-09-24T01:04:46.875Z,16.80
2017-09-24T01:07:16.068Z,16.90
2017-09-24T01:09:45.463Z,16.90
2017-09-24T01:12:15.014Z,17.20
2017-09-24T01:14:44.156Z,17.20
2017-09-24T01:17:13.537Z,17.40
2017-09-24T01:19:42.681Z,17.50
2017-09-24T01:22:11.386Z,17.50
2017-09-24T01:24:40.468Z,17.50
2017-09-24T01:27:09.389Z,17.60
2017-09-24T01:29:38.229Z,17.60
2017-09-24T01:32:06.871Z,17.60
2017-09-24T01:34:35.919Z,17.30
2017-09-24T01:37:05.335Z,17.30
2017-09-24T01:39:34.526Z,16.90
2017-09-24T01:42:03.496Z,16.90
2017-09-24T01:44:32.807Z,16.80
2017-09-24T01:47:02.027Z,16.80
2017-09-24T01:49:30.763Z,16.80
2017-09-24T01:51:59.574Z,16.50
2017-09-24T01:54:28.345Z,16.50
2017-09-24T01:56:56.955Z,16.30
2017-09-24T01:59:25.987Z,16.30
2017-09-24T02:01:54.823Z,16.30
2017-09-24T02:04:23.571Z,16.30
2017-09-24T02:06:52.401Z,16.20
2017-09-24T02:09:21.171Z,16.10
2017-09-24T02:11:49.858Z,16.10
2017-09-24T02:14:19.080Z,16.10
2017-09-24T02:16:48.642Z,16.20
2017-09-24T02:19:19.108Z,16.20
2017-09-24T02:21:48.319Z,16.20
2017-09-24T02:24:17.331Z,16.20
2017-09-24T02:26:46.185Z,16.20
2017-09-24T02:29:14.902Z,16.30
2017-09-24T02:31:44.082Z,16.30
2017-09-24T02:34:13.116Z,16.40
2017-09-24T02:36:42.383Z,16.40
2017-09-24T02:39:11.664Z,16.40
2017-09-24T02:41:40.611Z,16.40
2017-09-24T02:44:09.621Z,16.40
2017-09-24T02:46:38.524Z,16.30
2017-09-24T02:49:07.554Z,16.30
2017-09-24T02:51:38.120Z,16.20
2017-09-24T02:54:07.257Z,16.20
2017-09-24T02:56:36.137Z,16.10
2017-09-24T02:59:05.297Z,16.00
2017-09-24T03:01:34.363Z,15.90
2017-09-24T03:04:03.624Z,15.90
2017-09-24T03:06:32.187Z,15.80
2017-09-24T03:09:01.844Z,16.00
2017-09-24T03:11:30.620Z,16.00
2017-09-24T03:13:59.736Z,16.10
2017-09-24T03:16:28.214Z,16.10
2017-09-24T03:18:57.508Z,16.10
2017-09-24T03:21:26.548Z,16.10
2017-09-24T03:23:55.379Z,16.20
2017-09-24T03:26:24.834Z,16.20
2017-09-24T03:28:53.568Z,16.20
2017-09-24T03:31:22.819Z,16.30
2017-09-24T03:33:52.078Z,16.30
2017-09-24T03:36:20.952Z,16.30
2017-09-24T03:38:50.211Z,16.20
2017-09-24T03:41:19.236Z,16.30
2017-09-24T03:43:48.547Z,16.30
2017-09-24T03:46:22.244Z,16.40
2017-09-24T03:48:51.656Z,16.30
2017-09-24T03:51:20.523Z,16.30
2017-09-24T03:53:49.686Z,16.30
2017-09-24T03:56:18.280Z,16.30
2017-09-24T03:58:47.075Z,16.30
2017-09-24T04:01:16.007Z,16.30
2017-09-24T04:03:44.881Z,16.30
2017-09-24T04:06:13.901Z,16.30
2017-09-24T04:08:42.984Z,16.30
2017-09-24T04:11:11.853Z,16.20
2017-09-24T04:13:40.629Z,16.20
2017-09-24T04:16:09.472Z,16.30
2017-09-24T04:18:38.999Z,16.30
2017-09-24T04:21:09.506Z,16.30
2017-09-24T04:23:38.274Z,16.40
2017-09-24T04:26:06.689Z,16.40
2017-09-24T04:28:35.465Z,16.40
2017-09-24T04:31:03.999Z,16.40
2017-09-24T04:33:32.617Z,16.40
2017-09-24T04:36:01.417Z,16.50
2017-09-24T04:38:30.255Z,16.60
2017-09-24T04:40:59.163Z,16.60
2017-09-24T04:43:28.293Z,16.60
2017-09-24T04:45:57.282Z,16.60
2017-09-24T04:48:26.553Z,16.60
2017-09-24T04:50:55.686Z,16.60
2017-09-24T04:53:25.064Z,16.40
2017-09-24T04:55:53.743Z,16.40
2017-09-24T04:58:23.196Z,16.60
2017-09-24T05:00:51.917Z,16.50
2017-09-24T05:03:20.521Z,16.70
2017-09-24T05:05:49.588Z,16.80
2017-09-24T05:08:18.220Z,17.00
2017-09-24T05:10:47.379Z,17.00
2017-09-24T05:13:16.437Z,17.00
2017-09-24T05:15:45.680Z,16.90
2017-09-24T05:18:14.562Z,16.90
2017-09-24T05:20:43.159Z,17.00
2017-09-24T05:23:11.854Z,17.00
2017-09-24T05:25:41.443Z,16.90
2017-09-24T05:28:10.724Z,17.00
2017-09-24T05:30:39.788Z,17.00
2017-09-24T05:33:08.724Z,17.00
2017-09-24T05:35:37.191Z,17.00
2017-09-24T05:38:06.428Z,17.10
2017-09-24T05:40:35.561Z,17.20
2017-09-24T05:43:04.727Z,17.20
2017-09-24T05:45:34.257Z,17.20
2017-09-24T05:48:03.750Z,17.20
2017-09-24T05:50:32.524Z,17.20
2017-09-24T05:53:01.387Z,17.30
2017-09-24T05:55:30.533Z,17.40
2017-09-24T05:57:59.036Z,17.50
2017-09-24T06:00:28.815Z,17.70
2017-09-24T06:02:57.532Z,17.70
2017-09-24T06:05:26.598Z,17.80
2017-09-24T06:07:55.847Z,17.70
2017-09-24T06:10:25.368Z,17.60
2017-09-24T06:12:54.829Z,17.50
2017-09-24T06:15:24.983Z,17.30
2017-09-24T06:17:54.727Z,17.30
2017-09-24T06:20:23.772Z,17.30
2017-09-24T06:22:52.847Z,17.00
2017-09-24T06:25:22.561Z,16.80
2017-09-24T06:27:51.267Z,16.80
2017-09-24T06:30:21.081Z,16.70
2017-09-24T06:32:50.006Z,16.60
2017-09-24T06:35:18.848Z,16.70
2017-09-24T06:37:47.548Z,16.80
2017-09-24T06:40:16.009Z,16.80
2017-09-24T06:42:44.882Z,16.70
2017-09-24T06:45:13.513Z,16.70
2017-09-24T06:47:42.450Z,16.70
2017-09-24T06:50:11.260Z,16.80
2017-09-24T06:52:40.117Z,16.90
2017-09-24T06:55:09.036Z,16.80
2017-09-24T06:57:38.645Z,16.80
2017-09-24T07:00:07.338Z,16.80
2017-09-24T07:02:35.965Z,16.80
2017-09-24T07:05:05.170Z,16.80
2017-09-24T07:07:33.819Z,16.70
2017-09-24T07:10:02.722Z,16.60
2017-09-24T07:12:31.896Z,16.60
2017-09-24T07:15:00.707Z,16.60
2017-09-24T07:17:29.857Z,16.60
2017-09-24T07:19:59.063Z,16.60
2017-09-24T07:22:28.050Z,16.50
2017-09-24T07:24:56.907Z,16.50
2017-09-24T07:27:27.600Z,16.50
2017-09-24T07:29:56.476Z,16.30
2017-09-24T07:32:26.405Z,16.30
2017-09-24T07:34:55.396Z,16.30
2017-09-24T07:37:24.718Z,16.30
2017-09-24T07:39:54.158Z,16.30
2017-09-24T07:42:22.863Z,16.30
2017-09-24T07:44:51.835Z,16.30
2017-09-24T07:47:20.601Z,16.30
2017-09-24T07:49:50.111Z,16.20
2017-09-24T07:52:19.038Z,16.30
2017-09-24T07:54:48.245Z,16.20
2017-09-24T07:57:17.538Z,16.20
2017-09-24T07:59:46.706Z,16.20
2017-09-24T08:02:16.644Z,16.20
2017-09-24T08:04:46.966Z,16.30
2017-09-24T08:07:15.967Z,16.30
2017-09-24T08:09:44.810Z,16.30
2017-09-24T08:12:13.620Z,16.40
2017-09-24T08:14:42.790Z,16.40
2017-09-24T08:17:11.777Z,16.50
2017-09-24T08:19:40.890Z,16.50
2017-09-24T08:22:10.737Z,16.80
2017-09-24T08:24:39.577Z,16.80
2017-09-24T08:27:08.364Z,16.90
2017-09-24T08:29:37.592Z,16.90
2017-09-24T08:32:06.689Z,16.90
2017-09-24T08:34:36.383Z,16.80
2017-09-24T08:37:05.535Z,16.50
2017-09-24T08:39:34.696Z,16.50
2017-09-24T08:42:03.602Z,16.40
2017-09-24T08:44:32.547Z,16.40
2017-09-24T08:47:01.849Z,16.50
2017-09-24T08:49:30.764Z,16.50
2017-09-24T08:52:00.021Z,16.50
2017-09-24T08:54:28.963Z,16.50
2017-09-24T08:56:57.758Z,16.50
2017-09-24T08:59:27.101Z,16.40
2017-09-24T09:01:56.359Z,16.30
2017-09-24T09:04:25.174Z,16.30
2017-09-24T09:06:54.217Z,16.30
2017-09-24T09:09:23.709Z,16.40
2017-09-24T09:11:52.628Z,16.40
2017-09-24T09:14:21.676Z,16.40
2017-09-24T09:16:50.635Z,16.50
2017-09-24T09:19:19.714Z,16.50
2017-09-24T09:21:48.880Z,16.50
2017-09-24T09:24:18.062Z,16.80
2017-09-24T09:26:46.779Z,16.80
2017-09-24T09:29:15.464Z,16.90
2017-09-24T09:31:44.454Z,16.90
2017-09-24T09:34:24.890Z,17.00
2017-09-24T09:36:54.071Z,17.10
2017-09-24T09:39:22.802Z,17.10
2017-09-24T09:41:51.778Z,17.10
2017-09-24T09:44:32.922Z,17.00
2017-09-24T09:47:14.237Z,17.00
2017-09-24T09:49:43.331Z,17.10
2017-09-24T09:52:12.490Z,17.20
2017-09-24T09:54:41.199Z,17.30
2017-09-24T09:57:10.213Z,17.40
2017-09-24T09:59:39.205Z,17.50
2017-09-24T10:02:08.127Z,17.50
2017-09-24T10:04:37.638Z,17.50
2017-09-24T10:07:18.321Z,17.50
2017-09-24T10:09:59.452Z,17.70
2017-09-24T10:12:28.443Z,17.70
2017-09-24T10:14:57.660Z,17.70
2017-09-24T10:17:26.645Z,17.70
2017-09-24T10:19:55.561Z,17.70
2017-09-24T10:22:24.615Z,17.50
2017-09-24T10:24:53.425Z,17.50
2017-09-24T10:27:22.227Z,17.40
2017-09-24T10:30:02.578Z,17.30
2017-09-24T10:32:35.188Z,17.20
2017-09-24T10:35:04.787Z,17.30
2017-09-24T10:37:33.365Z,17.50
2017-09-24T10:40:01.908Z,17.20
2017-09-24T10:42:30.657Z,17.20
2017-09-24T10:45:01.642Z,17.30
2017-09-24T10:47:38.770Z,17.50
2017-09-24T10:50:09.272Z,17.50
2017-09-24T10:52:38.191Z,17.50
2017-09-24T10:55:06.702Z,17.50
2017-09-24T10:57:36.289Z,17.50
2017-09-24T11:00:05.731Z,17.50
2017-09-24T11:02:34.660Z,17.50
2017-09-24T11:05:03.917Z,17.50
2017-09-24T11:07:32.838Z,17.60
2017-09-24T11:10:01.853Z,17.90
2017-09-24T11:12:31.200Z,17.90
2017-09-24T11:15:00.298Z,17.80
2017-09-24T11:17:29.730Z,17.80
2017-09-24T11:19:58.153Z,17.80
2017-09-24T11:22:27.064Z,17.60
2017-09-24T11:24:56.043Z,17.40
2017-09-24T11:27:25.598Z,17.10
2017-09-24T11:29:55.084Z,17.10
2017-09-24T11:32:24.063Z,17.10
2017-09-24T11:34:52.934Z,17.20
2017-09-24T11:37:21.934Z,17.40
2017-09-24T11:39:50.720Z,17.40
2017-09-24T11:42:19.475Z,17.40
2017-09-24T11:44:48.169Z,17.40
2017-09-24T11:47:16.852Z,17.50
2017-09-24T11:49:45.755Z,17.50
2017-09-24T11:52:14.832Z,17.80
2017-09-24T11:54:43.602Z,17.80
2017-09-24T11:57:12.459Z,17.90
2017-09-24T11:59:41.382Z,18.00
2017-09-24T12:02:10.132Z,18.10
2017-09-24T12:04:39.865Z,17.90
2017-09-24T12:07:08.793Z,17.80
2017-09-24T12:09:37.608Z,17.70
2017-09-24T12:12:06.833Z,17.70
2017-09-24T12:14:36.455Z,17.70
2017-09-24T12:17:05.234Z,17.80
2017-09-24T12:19:34.224Z,17.80
2017-09-24T12:22:03.225Z,17.80
2017-09-24T12:24:32.659Z,17.80
2017-09-24T12:27:01.845Z,18.00
2017-09-24T12:29:31.597Z,17.80
2017-09-24T12:32:00.330Z,17.80
2017-09-24T12:34:29.014Z,17.60
2017-09-24T12:36:57.592Z,17.50
2017-09-24T12:39:26.499Z,17.50
2017-09-24T12:41:55.323Z,17.40
2017-09-24T12:44:24.109Z,17.30
2017-09-24T12:46:54.166Z,17.30
2017-09-24T12:49:23.632Z,17.30
2017-09-24T12:51:52.490Z,17.40
2017-09-24T12:54:21.781Z,17.50
2017-09-24T12:56:50.855Z,17.50
2017-09-24T12:59:19.921Z,17.50
2017-09-24T13:01:48.569Z,17.50
2017-09-24T13:04:17.352Z,17.60
2017-09-24T13:06:47.037Z,17.90
2017-09-24T13:09:15.781Z,17.90
2017-09-24T13:11:44.732Z,17.90
2017-09-24T13:14:13.509Z,18.00
2017-09-24T13:16:42.961Z,18.00
2017-09-24T13:19:11.690Z,18.00
2017-09-24T13:21:40.957Z,17.80
2017-09-24T13:24:09.682Z,17.70
2017-09-24T13:26:38.099Z,17.70
2017-09-24T13:29:06.923Z,17.70
2017-09-24T13:31:36.032Z,17.70
2017-09-24T13:34:04.761Z,17.60
2017-09-24T13:36:33.881Z,17.50
2017-09-24T13:39:02.833Z,17.40
2017-09-24T13:41:31.547Z,17.30
2017-09-24T13:44:00.346Z,17.30
2017-09-24T13:46:29.401Z,17.20
2017-09-24T13:48:58.503Z,17.20
2017-09-24T13:51:27.223Z,17.10
2017-09-24T13:53:56.355Z,17.00
2017-09-24T13:56:25.499Z,17.00
2017-09-24T13:58:54.545Z,17.20
2017-09-24T14:01:23.280Z,17.40
2017-09-24T14:03:52.635Z,17.50
2017-09-24T14:06:22.255Z,17.50
2017-09-24T14:08:51.147Z,17.50
2017-09-24T14:11:20.660Z,18.00
2017-09-24T14:13:49.834Z,18.00
2017-09-24T14:16:18.890Z,18.50
2017-09-24T14:18:48.570Z,19.00
2017-09-24T14:21:17.474Z,19.30
2017-09-24T14:23:46.424Z,19.20
2017-09-24T14:26:15.495Z,19.50
2017-09-24T14:28:45.041Z,20.70
2017-09-24T14:31:13.839Z,20.80
2017-09-24T14:33:42.534Z,21.20
2017-09-24T14:36:11.813Z,21.30
2017-09-24T14:38:40.838Z,21.60
2017-09-24T14:41:09.783Z,22.00
2017-09-24T14:43:38.466Z,22.10
2017-09-24T14:46:07.788Z,22.00
2017-09-24T14:48:37.346Z,21.70
2017-09-24T14:51:06.871Z,21.80
2017-09-24T14:53:37.280Z,22.20
2017-09-24T14:56:06.410Z,22.20
2017-09-24T14:58:36.231Z,22.80
2017-09-24T15:01:04.964Z,22.80
2017-09-24T15:03:33.989Z,22.60
2017-09-24T15:06:02.785Z,22.40
2017-09-24T15:08:32.493Z,22.50
2017-09-24T15:11:01.439Z,22.40
2017-09-24T15:13:30.430Z,22.10
2017-09-24T15:15:59.647Z,22.00
2017-09-24T15:18:28.714Z,22.00
2017-09-24T15:20:57.688Z,21.90
2017-09-24T15:23:26.621Z,22.00
2017-09-24T15:25:55.456Z,22.00
2017-09-24T15:28:25.008Z,21.70
2017-09-24T15:30:53.786Z,21.70
2017-09-24T15:33:22.429Z,21.50
2017-09-24T15:35:51.278Z,21.20
2017-09-24T15:38:20.404Z,20.80
2017-09-24T15:40:49.468Z,20.80
2017-09-24T15:43:18.468Z,20.50
2017-09-24T15:45:47.205Z,20.50
2017-09-24T15:48:16.260Z,20.20
2017-09-24T15:50:45.067Z,20.20
2017-09-24T15:53:14.883Z,20.10
2017-09-24T15:55:44.152Z,20.10
2017-09-24T15:58:12.804Z,20.10
2017-09-24T16:00:42.631Z,19.90
2017-09-24T16:03:11.643Z,19.90
2017-09-24T16:05:40.867Z,19.80
2017-09-24T16:08:09.857Z,19.80
2017-09-24T16:13:04.981Z,19.70
2017-09-24T16:15:34.122Z,19.60
2017-09-24T16:18:03.148Z,19.50
2017-09-24T16:20:31.829Z,19.50
2017-09-24T16:23:00.770Z,19.50
2017-09-24T16:25:29.700Z,19.60
2017-09-24T16:27:58.861Z,19.60
2017-09-24T16:30:27.930Z,19.60
2017-09-24T16:32:56.953Z,19.60
2017-09-24T16:35:26.002Z,19.60
2017-09-24T16:37:55.815Z,19.50
2017-09-24T16:40:24.973Z,19.50
2017-09-24T16:42:54.026Z,19.40
2017-09-24T16:45:23.341Z,19.30
2017-09-24T16:47:52.290Z,19.40
2017-09-24T16:50:22.541Z,19.40
2017-09-24T16:52:51.252Z,19.50
2017-09-24T16:55:19.668Z,19.40
2017-09-24T16:57:48.374Z,19.40
2017-09-24T17:00:17.282Z,19.80
2017-09-24T17:02:46.815Z,20.80
2017-09-24T17:05:16.137Z,20.80
2017-09-24T17:07:45.251Z,21.30
2017-09-24T17:10:14.239Z,21.70
2017-09-24T17:12:43.170Z,22.00
2017-09-24T17:15:12.273Z,22.40
2017-09-24T17:17:41.130Z,22.50
2017-09-24T17:20:10.087Z,22.50
2017-09-24T17:22:38.919Z,22.10
2017-09-24T17:25:07.739Z,21.80
2017-09-24T17:27:36.609Z,21.50
2017-09-24T17:30:05.510Z,21.30
2017-09-24T17:32:35.204Z,21.10
2017-09-24T17:35:03.924Z,21.00
2017-09-24T17:37:32.970Z,20.90
2017-09-24T17:40:02.014Z,20.80
2017-09-24T17:42:30.954Z,20.80
2017-09-24T17:45:00.152Z,20.70
2017-09-24T17:47:29.469Z,20.70
2017-09-24T17:49:58.447Z,20.60
2017-09-24T17:52:27.431Z,20.50
2017-09-24T17:54:56.239Z,20.10
2017-09-24T17:57:24.958Z,20.10
2017-09-24T17:59:54.411Z,19.40
2017-09-24T18:02:23.167Z,19.40
2017-09-24T18:04:51.988Z,19.20
2017-09-24T18:07:20.481Z,19.00
2017-09-24T18:09:49.503Z,18.90
2017-09-24T18:12:18.204Z,18.90
2017-09-24T18:14:46.918Z,19.00
2017-09-24T18:17:15.692Z,19.00
2017-09-24T18:19:44.835Z,19.00
2017-09-24T18:22:13.694Z,18.90
2017-09-24T18:24:42.890Z,18.90
2017-09-24T18:27:12.324Z,18.90
2017-09-24T18:29:41.004Z,18.90
2017-09-24T18:32:09.914Z,18.90
2017-09-24T18:34:38.890Z,18.80
2017-09-24T18:37:07.850Z,18.70
2017-09-24T18:39:36.501Z,18.70
2017-09-24T18:42:05.564Z,18.60
2017-09-24T18:44:35.268Z,18.80
2017-09-24T18:47:05.194Z,18.80
2017-09-24T18:49:34.179Z,18.90
2017-09-24T18:52:03.146Z,18.90
2017-09-24T18:54:32.397Z,19.10
2017-09-24T18:57:01.778Z,19.00
2017-09-24T18:59:30.481Z,19.00
2017-09-24T19:01:59.337Z,18.90
2017-09-24T19:04:28.750Z,18.90
2017-09-24T19:06:57.815Z,18.90
2017-09-24T19:09:26.765Z,18.90
2017-09-24T19:11:55.388Z,18.80
2017-09-24T19:14:24.685Z,18.80
2017-09-24T19:16:53.895Z,18.70
2017-09-24T19:19:22.681Z,18.70
2017-09-24T19:21:51.302Z,18.70
2017-09-24T19:24:20.265Z,18.70
2017-09-24T19:26:49.702Z,18.70
2017-09-24T19:29:18.242Z,18.60
2017-09-24T19:31:48.068Z,18.70
2017-09-24T19:34:17.082Z,18.70
2017-09-24T19:36:45.627Z,18.60
2017-09-24T19:39:14.242Z,18.50
2017-09-24T19:41:42.985Z,18.40
2017-09-24T19:44:11.927Z,18.30
2017-09-24T19:46:40.862Z,18.40
2017-09-24T19:49:09.370Z,18.50
2017-09-24T19:51:38.075Z,18.50
2017-09-24T19:54:06.764Z,18.50
2017-09-24T19:56:35.652Z,18.40
2017-09-24T19:59:05.424Z,18.10
2017-09-24T20:01:34.561Z,18.10
2017-09-24T20:04:03.566Z,17.90
2017-09-24T20:06:32.418Z,17.80
2017-09-24T20:09:01.314Z,17.70
2017-09-24T20:11:30.547Z,17.70
2017-09-24T20:13:59.365Z,17.70
2017-09-24T20:16:28.074Z,17.70
2017-09-24T20:18:57.104Z,17.70
2017-09-24T20:21:25.972Z,17.70
2017-09-24T20:23:54.935Z,17.70
2017-09-24T20:26:24.391Z,17.70
2017-09-24T20:28:53.186Z,17.70
2017-09-24T20:31:22.213Z,17.70
2017-09-24T20:33:50.997Z,17.70
2017-09-24T20:36:19.932Z,17.60
2017-09-24T20:38:48.598Z,17.50
2017-09-24T20:41:17.181Z,17.40
2017-09-24T20:43:46.015Z,17.30
2017-09-24T20:46:14.934Z,17.40
2017-09-24T20:48:43.730Z,17.40
2017-09-24T20:51:12.404Z,17.40
2017-09-24T20:53:41.833Z,17.40
2017-09-24T20:56:10.770Z,17.40
2017-09-24T20:58:39.366Z,17.40
2017-09-24T21:01:08.531Z,17.40
2017-09-24T21:03:37.790Z,17.40
2017-09-24T21:06:07.005Z,17.40
2017-09-24T21:08:36.036Z,17.40
2017-09-24T21:11:05.981Z,17.40
2017-09-24T21:13:35.088Z,17.50
2017-09-24T21:16:03.741Z,17.60
2017-09-24T21:18:32.370Z,17.80
2017-09-24T21:21:01.148Z,17.80
2017-09-24T21:23:29.775Z,17.90
2017-09-24T21:25:59.478Z,17.80
2017-09-24T21:28:28.732Z,17.90
2017-09-24T21:30:57.525Z,17.80
2017-09-24T21:33:27.244Z,17.80
2017-09-24T21:35:56.395Z,17.90
2017-09-24T21:38:25.253Z,17.90
2017-09-24T21:40:54.528Z,17.80
2017-09-24T21:43:23.541Z,17.70
2017-09-24T21:45:52.454Z,17.50
2017-09-24T21:48:21.180Z,17.50
2017-09-24T21:50:49.672Z,17.60
2017-09-24T21:53:18.711Z,17.60
2017-09-24T21:55:49.388Z,17.60
2017-09-24T21:58:18.723Z,17.60
2017-09-24T22:00:47.955Z,17.70
2017-09-24T22:03:16.856Z,17.60
2017-09-24T22:05:46.140Z,17.50
2017-09-24T22:08:14.889Z,17.40
2017-09-24T22:10:43.660Z,17.40
2017-09-24T22:13:13.511Z,17.40
2017-09-24T22:15:42.962Z,17.40
2017-09-24T22:18:11.635Z,17.50
2017-09-24T22:20:40.674Z,17.50
2017-09-24T22:23:09.773Z,17.50
2017-09-24T22:25:38.964Z,17.50
2017-09-24T22:28:07.453Z,17.60
2017-09-24T22:30:38.351Z,17.50
2017-09-24T22:33:07.621Z,17.30
2017-09-24T22:35:36.675Z,17.20
2017-09-24T22:38:05.506Z,17.20
2017-09-24T22:40:34.939Z,17.20
2017-09-24T22:43:03.821Z,17.20
2017-09-24T22:45:32.715Z,17.10
2017-09-24T22:48:02.190Z,17.30
2017-09-24T22:50:31.176Z,17.20
2017-09-24T22:52:59.991Z,17.30
2017-09-24T22:55:28.755Z,17.30
2017-09-24T22:57:57.566Z,17.30
2017-09-24T23:00:26.374Z,17.20
2017-09-24T23:02:55.327Z,17.20
2017-09-24T23:05:24.135Z,17.40
2017-09-24T23:07:52.697Z,17.40
2017-09-24T23:10:21.302Z,17.40
2017-09-24T23:12:50.621Z,17.50
2017-09-24T23:15:19.605Z,17.50
2017-09-24T23:17:50.022Z,17.50
2017-09-24T23:20:18.745Z,17.50
2017-09-24T23:22:47.410Z,17.40
2017-09-24T23:25:15.864Z,17.40
2017-09-24T23:27:44.677Z,17.30
2017-09-24T23:30:13.584Z,17.30
2017-09-24T23:32:42.649Z,17.40
2017-09-24T23:35:12.230Z,17.40
2017-09-24T23:37:41.462Z,17.50
2017-09-24T23:40:09.906Z,17.50
2017-09-24T23:42:39.111Z,17.40
2017-09-24T23:45:08.416Z,17.40
2017-09-24T23:47:37.916Z,17.60
2017-09-24T23:50:06.658Z,17.60
2017-09-24T23:52:35.390Z,17.70
2017-09-24T23:55:04.326Z,17.80
2017-09-24T23:57:33.081Z,17.70
